sensor_id;sensor_type;location;lat;lon;timestamp;temperature;humidity
29237;DHT22;16266;50.866;4.398;2022-12-04T00:00:32;1.70;99.90
29237;DHT22;16266;50.866;4.398;2022-12-04T00:02:58;1.60;99.90
29237;DHT22;16266;50.866;4.398;2022-12-04T00:05:23;1.60;99.90
29237;DHT22;16266;50.866;4.398;2022-12-04T00:07:49;1.50;99.90
29237;DHT22;16266;50.866;4.398;2022-12-04T00:10:15;1.50;99.90
29237;DHT22;16266;50.866;4.398;2022-12-04T00:12:41;1.40;99.90
29237;DHT22;16266;50.866;4.398;2022-12-04T00:15:07;1.30;99.90
29237;DHT22;16266;50.866;4.398;2022-12-04T00:17:33;1.30;99.90
29237;DHT22;16266;50.866;4.398;2022-12-04T00:19:58;1.20;99.90
29237;DHT22;16266;50.866;4.398;2022-12-04T00:22:24;1.10;99.90
29237;DHT22;16266;50.866;4.398;2022-12-04T00:24:49;1.10;99.90
29237;DHT22;16266;50.866;4.398;2022-12-04T00:27:15;1.20;99.90
29237;DHT22;16266;50.866;4.398;2022-12-04T00:29:41;1.20;99.90
29237;DHT22;16266;50.866;4.398;2022-12-04T00:32:06;1.20;99.90
29237;DHT22;16266;50.866;4.398;2022-12-04T00:34:32;1.30;99.90
29237;DHT22;16266;50.866;4.398;2022-12-04T00:36:57;1.30;99.90
29237;DHT22;16266;50.866;4.398;2022-12-04T00:39:23;1.20;99.90
29237;DHT22;16266;50.866;4.398;2022-12-04T00:41:49;1.20;99.90
29237;DHT22;16266;50.866;4.398;2022-12-04T00:44:14;1.20;99.90
29237;DHT22;16266;50.866;4.398;2022-12-04T00:46:40;1.30;99.90
29237;DHT22;16266;50.866;4.398;2022-12-04T00:49:06;1.40;99.90
29237;DHT22;16266;50.866;4.398;2022-12-04T00:51:31;1.40;99.90
29237;DHT22;16266;50.866;4.398;2022-12-04T00:53:57;1.50;99.90
29237;DHT22;16266;50.866;4.398;2022-12-04T00:56:26;1.50;99.90
29237;DHT22;16266;50.866;4.398;2022-12-04T00:58:57;1.70;99.90
29237;DHT22;16266;50.866;4.398;2022-12-04T01:01:23;1.70;99.90
29237;DHT22;16266;50.866;4.398;2022-12-04T01:03:50;1.70;99.90
29237;DHT22;16266;50.866;4.398;2022-12-04T01:06:27;1.60;99.90
29237;DHT22;16266;50.866;4.398;2022-12-04T01:08:54;1.70;99.90
29237;DHT22;16266;50.866;4.398;2022-12-04T01:11:22;1.70;99.90
29237;DHT22;16266;50.866;4.398;2022-12-04T01:13:48;1.70;99.90
29237;DHT22;16266;50.866;4.398;2022-12-04T01:16:16;1.70;99.90
29237;DHT22;16266;50.866;4.398;2022-12-04T01:18:42;1.70;99.90
29237;DHT22;16266;50.866;4.398;2022-12-04T01:21:08;1.60;99.90
29237;DHT22;16266;50.866;4.398;2022-12-04T01:23:33;1.60;99.90
29237;DHT22;16266;50.866;4.398;2022-12-04T01:25:59;1.60;99.90
29237;DHT22;16266;50.866;4.398;2022-12-04T01:28:25;1.60;99.90
29237;DHT22;16266;50.866;4.398;2022-12-04T01:31:03;1.60;99.90
29237;DHT22;16266;50.866;4.398;2022-12-04T01:33:31;1.50;99.90
29237;DHT22;16266;50.866;4.398;2022-12-04T01:35:58;1.60;99.90
29237;DHT22;16266;50.866;4.398;2022-12-04T01:38:24;1.60;99.90
29237;DHT22;16266;50.866;4.398;2022-12-04T01:40:50;1.60;99.90
29237;DHT22;16266;50.866;4.398;2022-12-04T01:43:16;1.70;99.90
29237;DHT22;16266;50.866;4.398;2022-12-04T01:45:46;1.70;99.90
29237;DHT22;16266;50.866;4.398;2022-12-04T01:51:23;1.70;99.90
29237;DHT22;16266;50.866;4.398;2022-12-04T01:53:59;1.70;99.90
29237;DHT22;16266;50.866;4.398;2022-12-04T01:56:43;1.80;99.90
29237;DHT22;16266;50.866;4.398;2022-12-04T01:59:12;1.80;99.90
29237;DHT22;16266;50.866;4.398;2022-12-04T02:01:43;1.80;99.90
29237;DHT22;16266;50.866;4.398;2022-12-04T02:04:10;1.80;99.90
29237;DHT22;16266;50.866;4.398;2022-12-04T02:06:36;1.70;99.90
29237;DHT22;16266;50.866;4.398;2022-12-04T02:09:02;1.70;99.90
29237;DHT22;16266;50.866;4.398;2022-12-04T02:11:51;1.70;99.90
29237;DHT22;16266;50.866;4.398;2022-12-04T02:17:10;1.80;99.90
29237;DHT22;16266;50.866;4.398;2022-12-04T02:20:17;1.90;99.90
29237;DHT22;16266;50.866;4.398;2022-12-04T02:25:46;2.00;99.90
29237;DHT22;16266;50.866;4.398;2022-12-04T02:28:30;1.90;99.90
29237;DHT22;16266;50.866;4.398;2022-12-04T02:30:59;1.90;99.90
29237;DHT22;16266;50.866;4.398;2022-12-04T02:33:57;1.90;99.90
29237;DHT22;16266;50.866;4.398;2022-12-04T02:36:28;1.90;99.90
29237;DHT22;16266;50.866;4.398;2022-12-04T02:39:08;1.90;99.90
29237;DHT22;16266;50.866;4.398;2022-12-04T02:41:43;1.80;99.90
29237;DHT22;16266;50.866;4.398;2022-12-04T02:44:19;1.80;99.90
29237;DHT22;16266;50.866;4.398;2022-12-04T02:46:49;1.80;99.90
29237;DHT22;16266;50.866;4.398;2022-12-04T02:49:37;1.90;99.90
29237;DHT22;16266;50.866;4.398;2022-12-04T02:52:08;1.90;99.90
29237;DHT22;16266;50.866;4.398;2022-12-04T02:54:39;1.80;99.90
29237;DHT22;16266;50.866;4.398;2022-12-04T02:57:11;1.80;99.90
29237;DHT22;16266;50.866;4.398;2022-12-04T02:59:40;1.80;99.90
29237;DHT22;16266;50.866;4.398;2022-12-04T03:02:42;1.90;99.90
29237;DHT22;16266;50.866;4.398;2022-12-04T03:05:15;2.00;99.90
29237;DHT22;16266;50.866;4.398;2022-12-04T03:07:54;1.90;99.90
29237;DHT22;16266;50.866;4.398;2022-12-04T03:10:28;1.90;99.90
29237;DHT22;16266;50.866;4.398;2022-12-04T03:13:06;2.00;99.90
29237;DHT22;16266;50.866;4.398;2022-12-04T03:15:38;2.00;99.90
29237;DHT22;16266;50.866;4.398;2022-12-04T03:18:14;1.90;99.90
29237;DHT22;16266;50.866;4.398;2022-12-04T03:20:41;1.90;99.90
29237;DHT22;16266;50.866;4.398;2022-12-04T03:23:15;2.00;99.90
29237;DHT22;16266;50.866;4.398;2022-12-04T03:25:50;1.90;99.90
29237;DHT22;16266;50.866;4.398;2022-12-04T03:28:27;1.90;99.90
29237;DHT22;16266;50.866;4.398;2022-12-04T03:31:01;1.90;99.90
29237;DHT22;16266;50.866;4.398;2022-12-04T03:33:55;1.90;99.90
29237;DHT22;16266;50.866;4.398;2022-12-04T03:36:31;1.90;99.90
29237;DHT22;16266;50.866;4.398;2022-12-04T03:39:34;1.80;99.90
29237;DHT22;16266;50.866;4.398;2022-12-04T03:45:01;1.90;99.90
29237;DHT22;16266;50.866;4.398;2022-12-04T03:47:44;1.90;99.90
29237;DHT22;16266;50.866;4.398;2022-12-04T03:50:33;1.90;99.90
29237;DHT22;16266;50.866;4.398;2022-12-04T03:53:10;2.00;99.90
29237;DHT22;16266;50.866;4.398;2022-12-04T03:55:55;1.90;99.90
29237;DHT22;16266;50.866;4.398;2022-12-04T03:58:27;2.00;99.90
29237;DHT22;16266;50.866;4.398;2022-12-04T04:00:55;2.10;99.90
29237;DHT22;16266;50.866;4.398;2022-12-04T04:03:27;2.10;99.90
29237;DHT22;16266;50.866;4.398;2022-12-04T04:05:58;2.10;99.90
29237;DHT22;16266;50.866;4.398;2022-12-04T04:08:28;2.10;99.90
29237;DHT22;16266;50.866;4.398;2022-12-04T04:11:42;2.20;99.90
29237;DHT22;16266;50.866;4.398;2022-12-04T04:14:22;2.20;99.90
29237;DHT22;16266;50.866;4.398;2022-12-04T04:17:09;2.20;99.90
29237;DHT22;16266;50.866;4.398;2022-12-04T04:20:11;2.30;99.90
29237;DHT22;16266;50.866;4.398;2022-12-04T04:22:59;2.30;99.90
29237;DHT22;16266;50.866;4.398;2022-12-04T04:25:45;2.30;99.90
29237;DHT22;16266;50.866;4.398;2022-12-04T04:28:37;2.30;99.90
29237;DHT22;16266;50.866;4.398;2022-12-04T04:31:33;2.40;99.90
29237;DHT22;16266;50.866;4.398;2022-12-04T04:41:57;2.60;99.90
29237;DHT22;16266;50.866;4.398;2022-12-04T04:44:38;2.50;99.90
29237;DHT22;16266;50.866;4.398;2022-12-04T04:47:07;2.40;99.90
29237;DHT22;16266;50.866;4.398;2022-12-04T04:49:38;2.30;99.90
29237;DHT22;16266;50.866;4.398;2022-12-04T04:52:05;2.40;99.90
29237;DHT22;16266;50.866;4.398;2022-12-04T04:54:32;2.40;99.90
29237;DHT22;16266;50.866;4.398;2022-12-04T04:56:59;2.40;99.90
29237;DHT22;16266;50.866;4.398;2022-12-04T04:59:25;2.40;99.90
29237;DHT22;16266;50.866;4.398;2022-12-04T05:01:51;2.50;99.90
29237;DHT22;16266;50.866;4.398;2022-12-04T05:04:17;2.50;99.90
29237;DHT22;16266;50.866;4.398;2022-12-04T05:06:42;2.50;99.90
29237;DHT22;16266;50.866;4.398;2022-12-04T05:09:08;2.40;99.90
29237;DHT22;16266;50.866;4.398;2022-12-04T05:11:34;2.50;99.90
29237;DHT22;16266;50.866;4.398;2022-12-04T05:13:59;2.40;99.90
29237;DHT22;16266;50.866;4.398;2022-12-04T05:16:26;2.40;99.90
29237;DHT22;16266;50.866;4.398;2022-12-04T05:18:52;2.40;99.90
29237;DHT22;16266;50.866;4.398;2022-12-04T05:21:36;2.30;99.90
29237;DHT22;16266;50.866;4.398;2022-12-04T05:24:01;2.40;99.90
29237;DHT22;16266;50.866;4.398;2022-12-04T05:26:27;2.40;99.90
29237;DHT22;16266;50.866;4.398;2022-12-04T05:28:53;2.30;99.90
29237;DHT22;16266;50.866;4.398;2022-12-04T05:31:18;2.30;99.90
29237;DHT22;16266;50.866;4.398;2022-12-04T05:33:44;2.20;99.90
29237;DHT22;16266;50.866;4.398;2022-12-04T05:36:10;2.20;99.90
29237;DHT22;16266;50.866;4.398;2022-12-04T05:38:37;2.20;99.90
29237;DHT22;16266;50.866;4.398;2022-12-04T05:41:04;2.20;99.90
29237;DHT22;16266;50.866;4.398;2022-12-04T05:43:31;2.20;99.90
29237;DHT22;16266;50.866;4.398;2022-12-04T05:46:02;2.20;99.90
29237;DHT22;16266;50.866;4.398;2022-12-04T05:48:28;2.20;99.90
29237;DHT22;16266;50.866;4.398;2022-12-04T05:50:53;2.20;99.90
29237;DHT22;16266;50.866;4.398;2022-12-04T05:53:19;2.20;99.90
29237;DHT22;16266;50.866;4.398;2022-12-04T05:55:54;2.10;99.90
29237;DHT22;16266;50.866;4.398;2022-12-04T05:58:19;2.10;99.90
29237;DHT22;16266;50.866;4.398;2022-12-04T06:00:45;2.20;99.90
29237;DHT22;16266;50.866;4.398;2022-12-04T06:03:10;2.10;99.90
29237;DHT22;16266;50.866;4.398;2022-12-04T06:05:36;2.10;99.90
29237;DHT22;16266;50.866;4.398;2022-12-04T06:08:02;2.10;99.90
29237;DHT22;16266;50.866;4.398;2022-12-04T06:10:28;2.10;99.90
29237;DHT22;16266;50.866;4.398;2022-12-04T06:12:53;2.10;99.90
29237;DHT22;16266;50.866;4.398;2022-12-04T06:15:22;2.10;99.90
29237;DHT22;16266;50.866;4.398;2022-12-04T06:17:48;2.20;99.90
29237;DHT22;16266;50.866;4.398;2022-12-04T06:20:14;2.40;99.90
29237;DHT22;16266;50.866;4.398;2022-12-04T06:22:39;2.30;99.90
29237;DHT22;16266;50.866;4.398;2022-12-04T06:25:05;2.30;99.90
29237;DHT22;16266;50.866;4.398;2022-12-04T06:27:31;2.30;99.90
29237;DHT22;16266;50.866;4.398;2022-12-04T06:29:58;2.40;99.90
29237;DHT22;16266;50.866;4.398;2022-12-04T06:32:23;2.40;99.90
29237;DHT22;16266;50.866;4.398;2022-12-04T06:34:53;2.30;99.90
29237;DHT22;16266;50.866;4.398;2022-12-04T06:37:20;2.20;99.90
29237;DHT22;16266;50.866;4.398;2022-12-04T06:39:45;2.20;99.90
29237;DHT22;16266;50.866;4.398;2022-12-04T06:42:11;2.10;99.90
29237;DHT22;16266;50.866;4.398;2022-12-04T06:44:37;2.20;99.90
29237;DHT22;16266;50.866;4.398;2022-12-04T06:47:02;2.20;99.90
29237;DHT22;16266;50.866;4.398;2022-12-04T06:49:28;2.20;99.90
29237;DHT22;16266;50.866;4.398;2022-12-04T06:51:54;2.20;99.90
29237;DHT22;16266;50.866;4.398;2022-12-04T06:54:19;2.20;99.90
29237;DHT22;16266;50.866;4.398;2022-12-04T06:56:45;2.20;99.90
29237;DHT22;16266;50.866;4.398;2022-12-04T06:59:12;2.20;99.90
29237;DHT22;16266;50.866;4.398;2022-12-04T07:01:38;2.30;99.90
29237;DHT22;16266;50.866;4.398;2022-12-04T07:04:04;2.20;99.90
29237;DHT22;16266;50.866;4.398;2022-12-04T07:06:35;2.20;99.90
29237;DHT22;16266;50.866;4.398;2022-12-04T07:09:11;2.20;99.90
29237;DHT22;16266;50.866;4.398;2022-12-04T07:11:38;2.20;99.90
29237;DHT22;16266;50.866;4.398;2022-12-04T07:14:04;2.20;99.90
29237;DHT22;16266;50.866;4.398;2022-12-04T07:16:30;2.20;99.90
29237;DHT22;16266;50.866;4.398;2022-12-04T07:18:56;2.20;99.90
29237;DHT22;16266;50.866;4.398;2022-12-04T07:21:25;2.10;99.90
29237;DHT22;16266;50.866;4.398;2022-12-04T07:23:53;2.10;99.90
29237;DHT22;16266;50.866;4.398;2022-12-04T07:26:20;2.20;99.90
29237;DHT22;16266;50.866;4.398;2022-12-04T07:28:45;2.20;99.90
29237;DHT22;16266;50.866;4.398;2022-12-04T07:31:16;2.20;99.90
29237;DHT22;16266;50.866;4.398;2022-12-04T07:33:43;2.30;99.90
29237;DHT22;16266;50.866;4.398;2022-12-04T07:36:12;2.40;99.90
29237;DHT22;16266;50.866;4.398;2022-12-04T07:38:38;2.40;99.90
29237;DHT22;16266;50.866;4.398;2022-12-04T07:41:05;2.50;99.90
29237;DHT22;16266;50.866;4.398;2022-12-04T07:43:32;2.50;99.90
29237;DHT22;16266;50.866;4.398;2022-12-04T07:46:01;2.50;99.90
29237;DHT22;16266;50.866;4.398;2022-12-04T07:48:27;2.60;99.90
29237;DHT22;16266;50.866;4.398;2022-12-04T07:51:02;2.60;99.90
29237;DHT22;16266;50.866;4.398;2022-12-04T07:53:27;2.60;99.90
29237;DHT22;16266;50.866;4.398;2022-12-04T07:55:53;2.50;99.90
29237;DHT22;16266;50.866;4.398;2022-12-04T07:58:19;2.60;99.90
29237;DHT22;16266;50.866;4.398;2022-12-04T08:00:44;2.50;99.90
29237;DHT22;16266;50.866;4.398;2022-12-04T08:03:11;2.50;99.90
29237;DHT22;16266;50.866;4.398;2022-12-04T08:05:37;2.50;99.90
29237;DHT22;16266;50.866;4.398;2022-12-04T08:08:02;2.70;99.90
29237;DHT22;16266;50.866;4.398;2022-12-04T08:10:28;2.70;99.90
29237;DHT22;16266;50.866;4.398;2022-12-04T08:12:53;2.70;99.90
29237;DHT22;16266;50.866;4.398;2022-12-04T08:15:19;2.70;99.90
29237;DHT22;16266;50.866;4.398;2022-12-04T08:17:45;2.60;99.90
29237;DHT22;16266;50.866;4.398;2022-12-04T08:20:11;2.60;99.90
29237;DHT22;16266;50.866;4.398;2022-12-04T08:22:36;2.60;99.90
29237;DHT22;16266;50.866;4.398;2022-12-04T08:25:02;2.60;99.90
29237;DHT22;16266;50.866;4.398;2022-12-04T08:27:27;2.60;99.90
29237;DHT22;16266;50.866;4.398;2022-12-04T08:29:53;2.50;99.90
29237;DHT22;16266;50.866;4.398;2022-12-04T08:32:19;2.50;99.90
29237;DHT22;16266;50.866;4.398;2022-12-04T08:34:44;2.60;99.90
29237;DHT22;16266;50.866;4.398;2022-12-04T08:37:10;2.60;99.90
29237;DHT22;16266;50.866;4.398;2022-12-04T08:39:35;2.60;99.90
29237;DHT22;16266;50.866;4.398;2022-12-04T08:42:01;2.50;99.90
29237;DHT22;16266;50.866;4.398;2022-12-04T08:44:27;2.60;99.90
29237;DHT22;16266;50.866;4.398;2022-12-04T08:46:52;2.60;99.90
29237;DHT22;16266;50.866;4.398;2022-12-04T08:49:18;2.70;99.90
29237;DHT22;16266;50.866;4.398;2022-12-04T08:51:44;2.90;99.90
29237;DHT22;16266;50.866;4.398;2022-12-04T08:54:11;2.90;99.90
29237;DHT22;16266;50.866;4.398;2022-12-04T08:56:37;2.90;99.90
29237;DHT22;16266;50.866;4.398;2022-12-04T08:59:03;3.00;99.90
29237;DHT22;16266;50.866;4.398;2022-12-04T09:01:29;3.00;99.90
29237;DHT22;16266;50.866;4.398;2022-12-04T09:03:56;3.10;99.90
29237;DHT22;16266;50.866;4.398;2022-12-04T09:06:22;3.00;99.90
29237;DHT22;16266;50.866;4.398;2022-12-04T09:08:51;3.00;99.90
29237;DHT22;16266;50.866;4.398;2022-12-04T09:11:19;3.00;99.90
29237;DHT22;16266;50.866;4.398;2022-12-04T09:13:45;3.00;99.90
29237;DHT22;16266;50.866;4.398;2022-12-04T09:16:14;3.10;99.90
29237;DHT22;16266;50.866;4.398;2022-12-04T09:18:40;3.10;99.90
29237;DHT22;16266;50.866;4.398;2022-12-04T09:21:08;3.20;99.90
29237;DHT22;16266;50.866;4.398;2022-12-04T09:23:35;3.20;99.90
29237;DHT22;16266;50.866;4.398;2022-12-04T09:26:02;3.20;99.90
29237;DHT22;16266;50.866;4.398;2022-12-04T09:28:28;3.30;99.90
29237;DHT22;16266;50.866;4.398;2022-12-04T09:30:58;3.40;99.90
29237;DHT22;16266;50.866;4.398;2022-12-04T09:33:25;3.50;99.90
29237;DHT22;16266;50.866;4.398;2022-12-04T09:35:50;3.30;99.90
29237;DHT22;16266;50.866;4.398;2022-12-04T09:38:16;3.30;99.90
29237;DHT22;16266;50.866;4.398;2022-12-04T09:45:49;3.60;99.90
29237;DHT22;16266;50.866;4.398;2022-12-04T09:48:17;3.50;99.90
29237;DHT22;16266;50.866;4.398;2022-12-04T09:50:46;3.40;99.90
29237;DHT22;16266;50.866;4.398;2022-12-04T09:53:18;3.30;99.90
29237;DHT22;16266;50.866;4.398;2022-12-04T09:56:10;3.40;99.90
29237;DHT22;16266;50.866;4.398;2022-12-04T09:58:56;3.40;99.90
29237;DHT22;16266;50.866;4.398;2022-12-04T10:01:48;3.40;99.90
29237;DHT22;16266;50.866;4.398;2022-12-04T10:04:16;3.40;99.90
29237;DHT22;16266;50.866;4.398;2022-12-04T10:06:54;3.60;99.90
29237;DHT22;16266;50.866;4.398;2022-12-04T10:18:05;3.70;99.90
29237;DHT22;16266;50.866;4.398;2022-12-04T10:25:38;3.60;99.90
29237;DHT22;16266;50.866;4.398;2022-12-04T10:28:27;3.60;99.90
29237;DHT22;16266;50.866;4.398;2022-12-04T10:30:59;3.60;99.90
29237;DHT22;16266;50.866;4.398;2022-12-04T10:35:53;3.50;99.90
29237;DHT22;16266;50.866;4.398;2022-12-04T10:38:34;3.50;99.90
29237;DHT22;16266;50.866;4.398;2022-12-04T10:41:25;3.50;99.90
29237;DHT22;16266;50.866;4.398;2022-12-04T10:43:51;3.50;99.90
29237;DHT22;16266;50.866;4.398;2022-12-04T10:46:21;3.50;99.90
29237;DHT22;16266;50.866;4.398;2022-12-04T10:49:26;3.60;99.90
29237;DHT22;16266;50.866;4.398;2022-12-04T10:51:53;3.70;99.90
29237;DHT22;16266;50.866;4.398;2022-12-04T10:54:35;3.80;99.90
29237;DHT22;16266;50.866;4.398;2022-12-04T10:57:06;3.90;99.90
29237;DHT22;16266;50.866;4.398;2022-12-04T10:59:33;3.80;99.90
29237;DHT22;16266;50.866;4.398;2022-12-04T11:04:36;3.90;99.90
29237;DHT22;16266;50.866;4.398;2022-12-04T11:07:10;3.80;99.90
29237;DHT22;16266;50.866;4.398;2022-12-04T11:09:40;3.60;99.90
29237;DHT22;16266;50.866;4.398;2022-12-04T11:12:18;3.50;99.90
29237;DHT22;16266;50.866;4.398;2022-12-04T11:14:45;3.50;99.90
29237;DHT22;16266;50.866;4.398;2022-12-04T11:17:18;3.60;99.90
29237;DHT22;16266;50.866;4.398;2022-12-04T11:19:44;3.60;99.90
29237;DHT22;16266;50.866;4.398;2022-12-04T11:22:19;3.50;99.90
29237;DHT22;16266;50.866;4.398;2022-12-04T11:24:56;3.60;99.90
29237;DHT22;16266;50.866;4.398;2022-12-04T11:27:31;3.60;99.90
29237;DHT22;16266;50.866;4.398;2022-12-04T11:30:06;3.60;99.90
29237;DHT22;16266;50.866;4.398;2022-12-04T11:32:32;3.50;99.90
29237;DHT22;16266;50.866;4.398;2022-12-04T11:35:25;3.50;99.90
29237;DHT22;16266;50.866;4.398;2022-12-04T11:40:22;3.40;99.90
29237;DHT22;16266;50.866;4.398;2022-12-04T11:43:11;3.50;99.90
29237;DHT22;16266;50.866;4.398;2022-12-04T11:45:38;3.50;99.90
29237;DHT22;16266;50.866;4.398;2022-12-04T11:48:14;3.40;99.90
29237;DHT22;16266;50.866;4.398;2022-12-04T11:50:45;3.40;99.90
29237;DHT22;16266;50.866;4.398;2022-12-04T12:01:40;3.50;99.90
29237;DHT22;16266;50.866;4.398;2022-12-04T12:07:10;3.50;99.90
29237;DHT22;16266;50.866;4.398;2022-12-04T12:10:25;3.60;99.90
29237;DHT22;16266;50.866;4.398;2022-12-04T12:20:46;3.50;99.90
29237;DHT22;16266;50.866;4.398;2022-12-04T12:26:08;3.50;99.90
29237;DHT22;16266;50.866;4.398;2022-12-04T12:29:08;3.50;99.90
29237;DHT22;16266;50.866;4.398;2022-12-04T12:37:10;3.40;99.90
29237;DHT22;16266;50.866;4.398;2022-12-04T12:39:44;3.40;99.90
29237;DHT22;16266;50.866;4.398;2022-12-04T12:42:37;3.50;99.90
29237;DHT22;16266;50.866;4.398;2022-12-04T12:47:36;3.50;99.90
29237;DHT22;16266;50.866;4.398;2022-12-04T12:50:11;3.60;99.90
29237;DHT22;16266;50.866;4.398;2022-12-04T12:52:57;3.70;99.90
29237;DHT22;16266;50.866;4.398;2022-12-04T12:55:40;3.70;99.90
29237;DHT22;16266;50.866;4.398;2022-12-04T12:58:20;3.70;99.90
29237;DHT22;16266;50.866;4.398;2022-12-04T13:00:59;3.60;99.90
29237;DHT22;16266;50.866;4.398;2022-12-04T13:03:49;3.50;99.90
29237;DHT22;16266;50.866;4.398;2022-12-04T13:06:21;3.50;99.90
29237;DHT22;16266;50.866;4.398;2022-12-04T13:09:16;3.60;99.90
29237;DHT22;16266;50.866;4.398;2022-12-04T13:11:45;3.50;99.90
29237;DHT22;16266;50.866;4.398;2022-12-04T13:14:12;3.50;99.90
29237;DHT22;16266;50.866;4.398;2022-12-04T13:17:26;3.50;99.90
29237;DHT22;16266;50.866;4.398;2022-12-04T13:19:54;3.50;99.90
29237;DHT22;16266;50.866;4.398;2022-12-04T13:42:42;3.40;99.90
29237;DHT22;16266;50.866;4.398;2022-12-04T13:45:40;3.60;99.90
29237;DHT22;16266;50.866;4.398;2022-12-04T13:48:08;3.50;99.90
29237;DHT22;16266;50.866;4.398;2022-12-04T13:50:36;3.50;99.90
29237;DHT22;16266;50.866;4.398;2022-12-04T13:53:02;3.50;99.90
29237;DHT22;16266;50.866;4.398;2022-12-04T14:00:41;3.30;99.90
29237;DHT22;16266;50.866;4.398;2022-12-04T14:03:30;3.20;99.90
29237;DHT22;16266;50.866;4.398;2022-12-04T14:06:15;3.10;99.90
29237;DHT22;16266;50.866;4.398;2022-12-04T14:08:44;3.00;99.90
29237;DHT22;16266;50.866;4.398;2022-12-04T14:11:18;3.20;99.90
29237;DHT22;16266;50.866;4.398;2022-12-04T14:13:51;3.30;99.90
29237;DHT22;16266;50.866;4.398;2022-12-04T14:16:34;3.30;99.90
29237;DHT22;16266;50.866;4.398;2022-12-04T14:19:02;3.30;99.90
29237;DHT22;16266;50.866;4.398;2022-12-04T14:21:44;3.10;99.90
29237;DHT22;16266;50.866;4.398;2022-12-04T14:24:37;3.10;99.90
29237;DHT22;16266;50.866;4.398;2022-12-04T14:33:16;3.00;99.90
29237;DHT22;16266;50.866;4.398;2022-12-04T14:36:06;2.90;99.90
29237;DHT22;16266;50.866;4.398;2022-12-04T14:38:32;3.00;99.90
29237;DHT22;16266;50.866;4.398;2022-12-04T14:40:58;3.00;99.90
29237;DHT22;16266;50.866;4.398;2022-12-04T14:43:38;3.00;99.90
29237;DHT22;16266;50.866;4.398;2022-12-04T14:51:36;2.80;99.90
29237;DHT22;16266;50.866;4.398;2022-12-04T14:59:48;2.70;99.90
29237;DHT22;16266;50.866;4.398;2022-12-04T15:02:40;2.70;99.90
29237;DHT22;16266;50.866;4.398;2022-12-04T15:05:18;2.70;99.90
29237;DHT22;16266;50.866;4.398;2022-12-04T15:07:49;2.70;99.90
29237;DHT22;16266;50.866;4.398;2022-12-04T15:10:28;2.70;99.90
29237;DHT22;16266;50.866;4.398;2022-12-04T15:13:27;2.70;99.90
29237;DHT22;16266;50.866;4.398;2022-12-04T15:15:54;2.70;99.90
29237;DHT22;16266;50.866;4.398;2022-12-04T15:18:19;2.70;99.90
29237;DHT22;16266;50.866;4.398;2022-12-04T15:23:17;2.70;99.90
29237;DHT22;16266;50.866;4.398;2022-12-04T15:25:51;2.60;99.90
29237;DHT22;16266;50.866;4.398;2022-12-04T15:30:59;2.50;99.90
29237;DHT22;16266;50.866;4.398;2022-12-04T15:33:28;2.50;99.90
29237;DHT22;16266;50.866;4.398;2022-12-04T15:35:58;2.50;99.90
29237;DHT22;16266;50.866;4.398;2022-12-04T15:38:25;2.60;99.90
29237;DHT22;16266;50.866;4.398;2022-12-04T15:40:56;2.50;99.90
29237;DHT22;16266;50.866;4.398;2022-12-04T15:45:53;2.40;99.90
29237;DHT22;16266;50.866;4.398;2022-12-04T15:48:24;2.40;99.90
29237;DHT22;16266;50.866;4.398;2022-12-04T15:51:01;2.40;99.90
29237;DHT22;16266;50.866;4.398;2022-12-04T15:53:31;2.50;99.90
29237;DHT22;16266;50.866;4.398;2022-12-04T15:56:06;2.50;99.90
29237;DHT22;16266;50.866;4.398;2022-12-04T15:58:35;2.70;99.90
29237;DHT22;16266;50.866;4.398;2022-12-04T16:01:07;2.60;99.90
29237;DHT22;16266;50.866;4.398;2022-12-04T16:06:20;2.60;99.90
29237;DHT22;16266;50.866;4.398;2022-12-04T16:08:51;2.70;99.90
29237;DHT22;16266;50.866;4.398;2022-12-04T16:16:34;2.60;99.90
29237;DHT22;16266;50.866;4.398;2022-12-04T16:19:24;2.60;99.90
29237;DHT22;16266;50.866;4.398;2022-12-04T16:21:51;2.60;99.90
29237;DHT22;16266;50.866;4.398;2022-12-04T16:24:17;2.70;99.90
29237;DHT22;16266;50.866;4.398;2022-12-04T16:26:42;2.80;99.90
29237;DHT22;16266;50.866;4.398;2022-12-04T16:29:08;2.80;99.90
29237;DHT22;16266;50.866;4.398;2022-12-04T16:31:35;2.80;99.90
29237;DHT22;16266;50.866;4.398;2022-12-04T16:34:00;2.80;99.90
29237;DHT22;16266;50.866;4.398;2022-12-04T16:36:27;2.70;99.90
29237;DHT22;16266;50.866;4.398;2022-12-04T16:38:53;2.60;99.90
29237;DHT22;16266;50.866;4.398;2022-12-04T16:41:19;2.50;99.90
29237;DHT22;16266;50.866;4.398;2022-12-04T16:43:52;2.60;99.90
29237;DHT22;16266;50.866;4.398;2022-12-04T16:46:18;2.60;99.90
29237;DHT22;16266;50.866;4.398;2022-12-04T16:48:44;2.70;99.90
29237;DHT22;16266;50.866;4.398;2022-12-04T16:51:15;2.60;99.90
29237;DHT22;16266;50.866;4.398;2022-12-04T16:53:41;2.60;99.90
29237;DHT22;16266;50.866;4.398;2022-12-04T16:56:07;2.50;99.90
29237;DHT22;16266;50.866;4.398;2022-12-04T16:58:33;2.60;99.90
29237;DHT22;16266;50.866;4.398;2022-12-04T17:00:58;2.60;99.90
29237;DHT22;16266;50.866;4.398;2022-12-04T17:03:29;2.50;99.90
29237;DHT22;16266;50.866;4.398;2022-12-04T17:05:55;2.60;99.90
29237;DHT22;16266;50.866;4.398;2022-12-04T17:08:22;2.60;99.90
29237;DHT22;16266;50.866;4.398;2022-12-04T17:10:48;2.60;99.90
29237;DHT22;16266;50.866;4.398;2022-12-04T17:13:16;2.70;99.90
29237;DHT22;16266;50.866;4.398;2022-12-04T17:15:42;2.70;99.90
29237;DHT22;16266;50.866;4.398;2022-12-04T17:18:08;2.70;99.90
29237;DHT22;16266;50.866;4.398;2022-12-04T17:20:34;2.70;99.90
29237;DHT22;16266;50.866;4.398;2022-12-04T17:22:59;2.70;99.90
29237;DHT22;16266;50.866;4.398;2022-12-04T17:25:25;2.80;99.90
29237;DHT22;16266;50.866;4.398;2022-12-04T17:27:51;2.80;99.90
29237;DHT22;16266;50.866;4.398;2022-12-04T17:30:16;2.80;99.90
29237;DHT22;16266;50.866;4.398;2022-12-04T17:32:42;2.70;99.90
29237;DHT22;16266;50.866;4.398;2022-12-04T17:35:10;2.80;99.90
29237;DHT22;16266;50.866;4.398;2022-12-04T17:37:36;2.80;99.90
29237;DHT22;16266;50.866;4.398;2022-12-04T17:40:07;2.70;99.90
29237;DHT22;16266;50.866;4.398;2022-12-04T17:42:35;2.70;99.90
29237;DHT22;16266;50.866;4.398;2022-12-04T17:45:00;2.60;99.90
29237;DHT22;16266;50.866;4.398;2022-12-04T17:47:26;2.60;99.90
29237;DHT22;16266;50.866;4.398;2022-12-04T17:49:52;2.60;99.90
29237;DHT22;16266;50.866;4.398;2022-12-04T17:52:18;2.60;99.90
29237;DHT22;16266;50.866;4.398;2022-12-04T17:54:51;2.60;99.90
29237;DHT22;16266;50.866;4.398;2022-12-04T17:57:16;2.50;99.90
29237;DHT22;16266;50.866;4.398;2022-12-04T17:59:43;2.50;99.90
29237;DHT22;16266;50.866;4.398;2022-12-04T18:02:10;2.50;99.90
29237;DHT22;16266;50.866;4.398;2022-12-04T18:04:37;2.50;99.90
29237;DHT22;16266;50.866;4.398;2022-12-04T18:07:02;2.50;99.90
29237;DHT22;16266;50.866;4.398;2022-12-04T18:09:28;2.50;99.90
29237;DHT22;16266;50.866;4.398;2022-12-04T18:11:54;2.60;99.90
29237;DHT22;16266;50.866;4.398;2022-12-04T18:14:26;2.70;99.90
29237;DHT22;16266;50.866;4.398;2022-12-04T18:16:53;2.80;99.90
29237;DHT22;16266;50.866;4.398;2022-12-04T18:19:21;2.80;99.90
29237;DHT22;16266;50.866;4.398;2022-12-04T18:21:47;2.90;99.90
29237;DHT22;16266;50.866;4.398;2022-12-04T18:24:13;2.80;99.90